San Clemente del Tuyu, Argentina
Current Conditions -  °F | °C
As of 3:00 PM on Tuesday 21 Oct 2014 (Local Time) from SUMU Reporting Station
Clear Clear  
Wind Chill: 79°   Ceiling: Unl
Heat Index: 79°   Visibility: 6mi
Dew Point: 52°   Wind: 10mph
Humidity: 39%   Direction: 360°N
Pressure: 30.06"   Gusts: NA
Location:  36.38°S, 56.72°W
Report Text: SUMU 211800Z 36009KT CAVOK 26/11 Q1018 NOSIG
Loading
Personal Weather Stations






























Interactive Weather Map
Tropical Storm Tracking
New forecast layout! Learn more

10-Day Weather Forecast

Advertisements
Track Severe Weather on mobile